Aviation Digital Data Service (ADDS)

Output produced by TAFs form (1053 UTC 24 April 2018)
found at http://aviationweather.gov/adds/tafs/
 
KDRO 240537Z 2406/2506 03004KT P6SM FEW110 
     FM240800 VRB03KT P6SM FEW250 
     FM241000 32005KT P6SM FEW250 
     FM242000 28015G25KT P6SM FEW250 
     FM250100 33010KT P6SM FEW200